createdAt,value
2023-02-25T00:04:00.074Z,0.52
2023-02-25T00:09:01.470Z,2.08
2023-02-25T00:14:03.278Z,1.00
2023-02-25T00:19:04.622Z,0.63
2023-02-25T00:24:15.840Z,0.68
2023-02-25T00:29:18.326Z,0.85
2023-02-25T00:34:21.072Z,1.27
2023-02-25T00:39:24.042Z,0.85
2023-02-25T00:44:25.452Z,0.88
2023-02-25T00:49:32.203Z,0.85
2023-02-25T00:54:34.981Z,1.13
2023-02-25T00:59:36.523Z,1.35
2023-02-25T01:04:37.863Z,1.27
2023-02-25T01:09:39.434Z,1.52
2023-02-25T01:14:40.805Z,1.85
2023-02-25T01:19:42.196Z,1.55
2023-02-25T01:24:43.599Z,1.52
2023-02-25T01:29:45.290Z,1.15
2023-02-25T01:34:46.634Z,1.50
2023-02-25T01:39:47.991Z,1.85
2023-02-25T01:45:20.227Z,2.10
2023-02-25T01:50:26.998Z,1.52
2023-02-25T01:55:28.488Z,1.37
2023-02-25T02:00:32.367Z,1.40
2023-02-25T02:05:46.493Z,2.25
2023-02-25T02:10:47.827Z,1.30
2023-02-25T02:16:10.847Z,1.38
2023-02-25T02:21:29.770Z,1.00
2023-02-25T02:26:49.566Z,0.88
2023-02-25T02:32:10.482Z,1.13
2023-02-25T02:37:30.786Z,0.80
2023-02-25T02:42:43.591Z,1.50
2023-02-25T02:47:54.436Z,0.85
2023-02-25T02:52:59.585Z,1.10
2023-02-25T02:58:06.886Z,0.70
2023-02-25T03:03:14.644Z,1.27
2023-02-25T03:08:23.139Z,1.10
2023-02-25T03:13:24.724Z,1.52
2023-02-25T03:18:37.129Z,1.27
2023-02-25T03:23:42.994Z,1.38
2023-02-25T03:28:46.047Z,0.90
2023-02-25T03:34:10.391Z,0.70
2023-02-25T03:39:21.348Z,0.90
2023-02-25T03:44:28.735Z,0.93
2023-02-25T03:49:40.692Z,2.00
2023-02-25T03:54:42.161Z,1.38
2023-02-25T03:59:43.502Z,0.95
2023-02-25T04:04:44.956Z,0.93
2023-02-25T04:09:46.368Z,1.17
2023-02-25T04:14:47.859Z,1.95
2023-02-25T04:19:49.247Z,1.17
2023-02-25T04:24:50.664Z,2.35
2023-02-25T04:29:52.054Z,1.95
2023-02-25T04:34:53.415Z,2.03
2023-02-25T04:39:54.839Z,1.80
2023-02-25T04:44:56.222Z,1.80
2023-02-25T04:49:57.854Z,2.03
2023-02-25T04:54:59.346Z,2.33
2023-02-25T05:00:00.689Z,1.95
2023-02-25T05:05:02.116Z,1.73
2023-02-25T05:10:04.804Z,1.98
2023-02-25T05:15:08.523Z,1.70
2023-02-25T05:20:12.645Z,2.20
2023-02-25T05:25:14.782Z,1.38
2023-02-25T05:30:16.317Z,2.13
2023-02-25T05:35:18.156Z,1.98
2023-02-25T05:40:19.625Z,1.30
2023-02-25T05:45:21.041Z,1.60
2023-02-25T05:50:22.404Z,1.98
2023-02-25T05:55:24.154Z,2.00
2023-02-25T06:00:25.590Z,2.28
2023-02-25T06:05:26.968Z,2.20
2023-02-25T06:10:28.412Z,2.60
2023-02-25T06:15:29.810Z,2.63
2023-02-25T06:20:31.756Z,2.10
2023-02-25T06:25:33.127Z,2.78
2023-02-25T06:30:34.569Z,1.60
2023-02-25T06:35:36.069Z,2.97
2023-02-25T06:40:38.404Z,2.88
2023-02-25T06:45:39.847Z,2.25
2023-02-25T06:50:41.757Z,1.50
2023-02-25T06:55:43.089Z,0.82
2023-02-25T07:00:44.988Z,2.00
2023-02-25T07:05:46.416Z,2.20
2023-02-25T07:10:47.776Z,1.60
2023-02-25T07:15:49.218Z,2.22
2023-02-25T07:20:50.608Z,1.00
2023-02-25T07:25:51.974Z,2.72
2023-02-25T07:30:53.414Z,3.92
2023-02-25T07:35:55.373Z,2.42
2023-02-25T07:40:56.727Z,2.85
2023-02-25T07:45:58.257Z,2.45
2023-02-25T07:51:18.549Z,2.85
2023-02-25T07:56:21.794Z,3.13
2023-02-25T08:01:29.732Z,2.85
2023-02-25T08:06:31.830Z,2.08
2023-02-25T08:11:33.343Z,2.58
2023-02-25T08:16:34.818Z,4.25
2023-02-25T08:21:37.364Z,4.00
2023-02-25T08:26:38.823Z,2.38
2023-02-25T08:31:40.393Z,2.95
2023-02-25T08:36:41.968Z,3.15
2023-02-25T08:41:44.187Z,3.20
2023-02-25T08:46:46.080Z,2.72
2023-02-25T08:51:50.587Z,1.65
2023-02-25T08:56:52.081Z,2.28
2023-02-25T09:01:54.165Z,2.80
2023-02-25T09:06:58.282Z,2.28
2023-02-25T09:12:00.721Z,1.08
2023-02-25T09:17:02.895Z,2.88
2023-02-25T09:22:08.838Z,2.00
2023-02-25T09:27:10.396Z,1.60
2023-02-25T09:32:18.376Z,1.90
2023-02-25T09:37:19.880Z,1.77
2023-02-25T09:42:24.520Z,2.17
2023-02-25T09:47:37.823Z,1.15
2023-02-25T09:52:46.552Z,2.35
2023-02-25T09:58:13.969Z,0.50
2023-02-25T10:14:20.804Z,1.90
2023-02-25T10:19:42.354Z,2.17
2023-02-25T10:24:48.745Z,1.73
2023-02-25T10:29:58.845Z,1.40
2023-02-25T10:35:11.176Z,1.45
2023-02-25T10:40:18.723Z,1.52
2023-02-25T10:50:39.263Z,1.00
2023-02-25T10:55:51.835Z,1.00
2023-02-25T11:01:16.809Z,1.40
2023-02-25T11:06:23.686Z,2.03
2023-02-25T11:11:38.507Z,2.20
2023-02-25T11:16:42.776Z,2.30
2023-02-25T11:21:44.797Z,0.77
2023-02-25T11:26:49.382Z,1.40
2023-02-25T11:31:55.747Z,1.40
2023-02-25T11:37:35.946Z,0.40
2023-02-25T11:42:37.659Z,0.38
2023-02-25T11:47:39.111Z,0.60
2023-02-25T11:52:46.494Z,0.30
2023-02-25T11:58:15.301Z,0.15
2023-02-25T12:03:39.621Z,0.20
2023-02-25T12:09:25.568Z,0.35
2023-02-25T12:14:59.130Z,0.20
2023-02-25T12:20:06.392Z,0.30
2023-02-25T12:25:49.676Z,0.30
2023-02-25T12:31:23.348Z,0.38
2023-02-25T12:37:00.295Z,0.30
2023-02-25T12:42:21.152Z,0.20
2023-02-25T12:47:22.479Z,0.40
2023-02-25T12:52:47.861Z,0.30
2023-02-25T12:58:19.889Z,0.35
2023-02-25T13:03:34.132Z,0.28
2023-02-25T13:08:41.196Z,0.20
2023-02-25T13:13:57.919Z,0.20
2023-02-25T13:19:36.427Z,0.25
2023-02-25T13:30:05.455Z,0.20
2023-02-25T13:35:32.236Z,0.20
2023-02-25T13:40:48.837Z,0.28
2023-02-25T14:02:22.426Z,0.80
2023-02-25T14:07:29.784Z,0.30
2023-02-25T14:13:09.864Z,0.20
2023-02-25T14:18:21.758Z,0.35
2023-02-25T14:23:53.071Z,0.57
2023-02-25T14:29:11.861Z,0.30
2023-02-25T14:34:46.737Z,0.40
2023-02-25T14:40:05.480Z,0.77
2023-02-25T14:45:29.135Z,0.50
2023-02-25T14:50:40.787Z,0.32
2023-02-25T14:56:19.945Z,0.70
2023-02-25T15:01:55.754Z,0.65
2023-02-25T15:07:28.579Z,0.47
2023-02-25T17:38:07.235Z,0.30
2023-02-25T17:43:24.074Z,0.22
2023-02-25T17:48:29.732Z,0.35
2023-02-25T17:54:15.537Z,0.88
2023-02-25T17:59:36.440Z,0.55
2023-02-25T18:04:41.115Z,0.40
2023-02-25T18:09:42.458Z,0.60
2023-02-25T18:14:46.057Z,0.50
2023-02-25T18:19:48.061Z,0.60
2023-02-25T18:24:58.887Z,0.75
2023-02-25T18:30:19.191Z,0.50
2023-02-25T18:35:21.843Z,0.47
2023-02-25T18:40:27.934Z,0.60
2023-02-25T18:45:31.005Z,0.40
2023-02-25T18:50:33.204Z,0.93
2023-02-25T18:55:34.551Z,0.50
2023-02-25T19:00:36.014Z,0.52
2023-02-25T19:05:37.405Z,0.30
2023-02-25T19:10:38.982Z,0.22
2023-02-25T19:15:40.586Z,0.30
2023-02-25T19:20:43.903Z,0.40
2023-02-25T19:25:47.774Z,0.80
2023-02-25T19:30:49.189Z,0.60
2023-02-25T19:35:50.577Z,0.50
2023-02-25T19:40:51.999Z,0.75
2023-02-25T19:45:54.353Z,0.65
2023-02-25T19:50:55.791Z,0.70
2023-02-25T19:55:57.355Z,0.30
2023-02-25T20:01:07.166Z,0.40
2023-02-25T20:06:13.235Z,0.38
2023-02-25T20:11:14.860Z,0.70
2023-02-25T20:16:16.245Z,0.50
2023-02-25T20:21:18.807Z,0.50
2023-02-25T20:26:22.989Z,0.88
2023-02-25T20:31:26.169Z,0.88
2023-02-25T20:36:38.028Z,0.40
2023-02-25T20:41:42.741Z,0.90
2023-02-25T20:46:44.648Z,0.50
2023-02-25T20:51:47.401Z,0.50
2023-02-25T20:56:49.923Z,0.90
2023-02-25T21:01:51.340Z,0.45
2023-02-25T21:06:52.878Z,0.60
2023-02-25T21:11:54.322Z,0.82
2023-02-25T21:16:56.916Z,1.88
2023-02-25T21:21:58.328Z,1.05
2023-02-25T21:27:01.327Z,0.65
2023-02-25T21:32:02.723Z,1.27
2023-02-25T21:37:04.370Z,1.13
2023-02-25T21:42:05.737Z,0.80
2023-02-25T21:47:07.120Z,1.33
2023-02-25T21:52:08.480Z,1.08
2023-02-25T21:57:09.964Z,0.75
2023-02-25T22:02:11.331Z,1.90
2023-02-25T22:07:12.713Z,0.60
2023-02-25T22:12:14.140Z,0.50
2023-02-25T22:17:15.594Z,0.70
2023-02-25T22:22:16.925Z,0.60
2023-02-25T22:27:18.303Z,0.60
2023-02-25T22:32:20.334Z,0.75
2023-02-25T22:37:21.766Z,0.50
2023-02-25T22:42:23.623Z,0.43
2023-02-25T22:47:25.269Z,0.60
2023-02-25T22:52:26.658Z,0.50
2023-02-25T22:57:28.019Z,0.90
2023-02-25T23:02:29.402Z,0.60
2023-02-25T23:07:30.739Z,0.70
2023-02-25T23:12:32.089Z,0.50
2023-02-25T23:17:33.408Z,0.50
2023-02-25T23:22:35.133Z,0.60
2023-02-25T23:27:37.097Z,0.40
2023-02-25T23:32:40.960Z,0.60
2023-02-25T23:37:42.635Z,0.60
2023-02-25T23:42:44.156Z,0.45
2023-02-25T23:47:45.498Z,0.70
2023-02-25T23:52:46.904Z,0.50
2023-02-25T23:57:48.470Z,0.68
